sensor_id;sensor_type;location;lat;lon;timestamp;temperature;humidity
44900;DHT22;30628;51.188;6.770;2023-10-08T00:01:53;18.30;99.90
44900;DHT22;30628;51.188;6.770;2023-10-08T00:04:21;18.30;99.90
44900;DHT22;30628;51.188;6.770;2023-10-08T00:06:47;18.30;99.90
44900;DHT22;30628;51.188;6.770;2023-10-08T00:09:13;18.30;99.90
44900;DHT22;30628;51.188;6.770;2023-10-08T00:11:41;18.30;99.90
44900;DHT22;30628;51.188;6.770;2023-10-08T00:14:07;18.30;99.90
44900;DHT22;30628;51.188;6.770;2023-10-08T00:16:36;18.30;99.90
44900;DHT22;30628;51.188;6.770;2023-10-08T00:19:06;18.30;99.90
44900;DHT22;30628;51.188;6.770;2023-10-08T00:21:38;18.30;99.90
44900;DHT22;30628;51.188;6.770;2023-10-08T00:24:05;18.30;99.90
44900;DHT22;30628;51.188;6.770;2023-10-08T00:26:33;18.30;99.90
44900;DHT22;30628;51.188;6.770;2023-10-08T00:29:06;18.20;99.90
44900;DHT22;30628;51.188;6.770;2023-10-08T00:31:33;18.20;99.90
44900;DHT22;30628;51.188;6.770;2023-10-08T00:34:06;18.20;99.90
44900;DHT22;30628;51.188;6.770;2023-10-08T00:36:34;18.20;99.90
44900;DHT22;30628;51.188;6.770;2023-10-08T00:38:59;18.20;99.90
44900;DHT22;30628;51.188;6.770;2023-10-08T00:41:26;18.20;99.90
44900;DHT22;30628;51.188;6.770;2023-10-08T00:43:57;18.20;99.90
44900;DHT22;30628;51.188;6.770;2023-10-08T00:46:26;18.20;99.90
44900;DHT22;30628;51.188;6.770;2023-10-08T00:48:57;18.10;99.90
44900;DHT22;30628;51.188;6.770;2023-10-08T00:51:31;18.10;99.90
44900;DHT22;30628;51.188;6.770;2023-10-08T00:54:06;18.20;99.90
44900;DHT22;30628;51.188;6.770;2023-10-08T00:56:34;18.10;99.90
44900;DHT22;30628;51.188;6.770;2023-10-08T00:59:16;18.00;99.90
44900;DHT22;30628;51.188;6.770;2023-10-08T01:01:45;18.10;99.90
44900;DHT22;30628;51.188;6.770;2023-10-08T01:04:25;18.00;99.90
44900;DHT22;30628;51.188;6.770;2023-10-08T01:07:00;17.90;99.90
44900;DHT22;30628;51.188;6.770;2023-10-08T01:09:28;17.90;99.90
44900;DHT22;30628;51.188;6.770;2023-10-08T01:14:35;17.90;99.90
44900;DHT22;30628;51.188;6.770;2023-10-08T01:17:02;17.90;99.90
44900;DHT22;30628;51.188;6.770;2023-10-08T01:19:28;17.90;99.90
44900;DHT22;30628;51.188;6.770;2023-10-08T01:21:53;17.90;99.90
44900;DHT22;30628;51.188;6.770;2023-10-08T01:24:19;17.80;99.90
44900;DHT22;30628;51.188;6.770;2023-10-08T01:26:49;17.80;99.90
44900;DHT22;30628;51.188;6.770;2023-10-08T01:29:15;17.80;99.90
44900;DHT22;30628;51.188;6.770;2023-10-08T01:31:47;17.80;99.90
44900;DHT22;30628;51.188;6.770;2023-10-08T01:34:14;17.80;99.90
44900;DHT22;30628;51.188;6.770;2023-10-08T01:36:41;17.80;99.90
44900;DHT22;30628;51.188;6.770;2023-10-08T01:39:10;17.80;99.90
44900;DHT22;30628;51.188;6.770;2023-10-08T01:41:44;17.70;99.90
44900;DHT22;30628;51.188;6.770;2023-10-08T01:44:11;17.80;99.90
44900;DHT22;30628;51.188;6.770;2023-10-08T01:46:37;17.70;99.90
44900;DHT22;30628;51.188;6.770;2023-10-08T01:49:06;17.70;99.90
44900;DHT22;30628;51.188;6.770;2023-10-08T01:51:39;17.80;99.90
44900;DHT22;30628;51.188;6.770;2023-10-08T01:54:10;17.70;99.90
44900;DHT22;30628;51.188;6.770;2023-10-08T01:56:39;17.60;99.90
44900;DHT22;30628;51.188;6.770;2023-10-08T01:59:10;17.60;99.90
44900;DHT22;30628;51.188;6.770;2023-10-08T02:01:37;17.50;99.90
44900;DHT22;30628;51.188;6.770;2023-10-08T02:04:05;17.50;99.90
44900;DHT22;30628;51.188;6.770;2023-10-08T02:06:35;17.50;99.90
44900;DHT22;30628;51.188;6.770;2023-10-08T02:09:02;17.50;99.90
44900;DHT22;30628;51.188;6.770;2023-10-08T02:11:47;17.50;99.90
44900;DHT22;30628;51.188;6.770;2023-10-08T02:14:20;17.50;99.90
44900;DHT22;30628;51.188;6.770;2023-10-08T02:16:46;17.50;99.90
44900;DHT22;30628;51.188;6.770;2023-10-08T02:19:13;17.50;99.90
44900;DHT22;30628;51.188;6.770;2023-10-08T02:21:39;17.50;99.90
44900;DHT22;30628;51.188;6.770;2023-10-08T02:24:12;17.50;99.90
44900;DHT22;30628;51.188;6.770;2023-10-08T02:26:39;17.50;99.90
44900;DHT22;30628;51.188;6.770;2023-10-08T02:29:05;17.50;99.90
44900;DHT22;30628;51.188;6.770;2023-10-08T02:31:40;17.50;99.90
44900;DHT22;30628;51.188;6.770;2023-10-08T02:34:07;17.50;99.90
44900;DHT22;30628;51.188;6.770;2023-10-08T02:36:36;17.50;99.90
44900;DHT22;30628;51.188;6.770;2023-10-08T02:39:06;17.50;99.90
44900;DHT22;30628;51.188;6.770;2023-10-08T02:41:49;17.50;99.90
44900;DHT22;30628;51.188;6.770;2023-10-08T02:44:16;17.40;99.90
44900;DHT22;30628;51.188;6.770;2023-10-08T02:46:47;17.40;99.90
44900;DHT22;30628;51.188;6.770;2023-10-08T02:49:13;17.40;99.90
44900;DHT22;30628;51.188;6.770;2023-10-08T02:51:42;17.40;99.90
44900;DHT22;30628;51.188;6.770;2023-10-08T02:54:10;17.50;99.90
44900;DHT22;30628;51.188;6.770;2023-10-08T02:56:52;17.40;99.90
44900;DHT22;30628;51.188;6.770;2023-10-08T02:59:28;17.40;99.90
44900;DHT22;30628;51.188;6.770;2023-10-08T03:02:10;17.50;99.90
44900;DHT22;30628;51.188;6.770;2023-10-08T03:04:54;17.50;99.90
44900;DHT22;30628;51.188;6.770;2023-10-08T03:07:20;17.40;99.90
44900;DHT22;30628;51.188;6.770;2023-10-08T03:09:57;17.40;99.90
44900;DHT22;30628;51.188;6.770;2023-10-08T03:12:32;17.40;99.90
44900;DHT22;30628;51.188;6.770;2023-10-08T03:14:59;17.30;99.90
44900;DHT22;30628;51.188;6.770;2023-10-08T03:17:41;17.20;99.90
44900;DHT22;30628;51.188;6.770;2023-10-08T03:20:19;17.20;99.90
44900;DHT22;30628;51.188;6.770;2023-10-08T03:23:04;17.20;99.90
44900;DHT22;30628;51.188;6.770;2023-10-08T03:25:37;17.20;99.90
44900;DHT22;30628;51.188;6.770;2023-10-08T03:28:10;17.20;99.90
44900;DHT22;30628;51.188;6.770;2023-10-08T03:30:39;17.20;99.90
44900;DHT22;30628;51.188;6.770;2023-10-08T03:33:13;17.30;99.90
44900;DHT22;30628;51.188;6.770;2023-10-08T03:35:48;17.20;99.90
44900;DHT22;30628;51.188;6.770;2023-10-08T03:38:15;17.10;99.90
44900;DHT22;30628;51.188;6.770;2023-10-08T03:40:47;17.10;99.90
44900;DHT22;30628;51.188;6.770;2023-10-08T03:43:15;17.10;99.90
44900;DHT22;30628;51.188;6.770;2023-10-08T03:45:49;17.10;99.90
44900;DHT22;30628;51.188;6.770;2023-10-08T03:48:25;17.20;99.90
44900;DHT22;30628;51.188;6.770;2023-10-08T03:50:50;17.20;99.90
44900;DHT22;30628;51.188;6.770;2023-10-08T03:53:42;17.10;99.90
44900;DHT22;30628;51.188;6.770;2023-10-08T03:56:26;17.00;99.90
44900;DHT22;30628;51.188;6.770;2023-10-08T03:58:55;17.10;99.90
44900;DHT22;30628;51.188;6.770;2023-10-08T04:01:26;17.00;99.90
44900;DHT22;30628;51.188;6.770;2023-10-08T04:03:55;17.00;99.90
44900;DHT22;30628;51.188;6.770;2023-10-08T04:06:28;17.10;99.90
44900;DHT22;30628;51.188;6.770;2023-10-08T04:09:05;17.20;99.90
44900;DHT22;30628;51.188;6.770;2023-10-08T04:11:30;17.10;99.90
44900;DHT22;30628;51.188;6.770;2023-10-08T04:14:03;17.10;99.90
44900;DHT22;30628;51.188;6.770;2023-10-08T04:16:31;17.10;99.90
44900;DHT22;30628;51.188;6.770;2023-10-08T04:18:57;17.00;99.90
44900;DHT22;30628;51.188;6.770;2023-10-08T04:21:23;17.00;99.90
44900;DHT22;30628;51.188;6.770;2023-10-08T04:23:55;16.90;99.90
44900;DHT22;30628;51.188;6.770;2023-10-08T04:26:23;16.90;99.90
44900;DHT22;30628;51.188;6.770;2023-10-08T04:28:56;16.90;99.90
44900;DHT22;30628;51.188;6.770;2023-10-08T04:31:34;16.90;99.90
44900;DHT22;30628;51.188;6.770;2023-10-08T04:34:07;17.00;99.90
44900;DHT22;30628;51.188;6.770;2023-10-08T04:36:42;17.00;99.90
44900;DHT22;30628;51.188;6.770;2023-10-08T04:39:10;17.00;99.90
44900;DHT22;30628;51.188;6.770;2023-10-08T04:41:42;17.00;99.90
44900;DHT22;30628;51.188;6.770;2023-10-08T04:44:09;17.00;99.90
44900;DHT22;30628;51.188;6.770;2023-10-08T04:46:43;17.00;99.90
44900;DHT22;30628;51.188;6.770;2023-10-08T04:49:15;17.00;99.90
44900;DHT22;30628;51.188;6.770;2023-10-08T04:52:15;17.00;99.90
44900;DHT22;30628;51.188;6.770;2023-10-08T04:54:42;16.90;99.90
44900;DHT22;30628;51.188;6.770;2023-10-08T04:57:17;16.90;99.90
44900;DHT22;30628;51.188;6.770;2023-10-08T04:59:44;16.80;99.90
44900;DHT22;30628;51.188;6.770;2023-10-08T05:02:12;16.80;99.90
44900;DHT22;30628;51.188;6.770;2023-10-08T05:04:43;16.90;99.90
44900;DHT22;30628;51.188;6.770;2023-10-08T05:07:18;16.90;99.90
44900;DHT22;30628;51.188;6.770;2023-10-08T05:10:07;16.90;99.90
44900;DHT22;30628;51.188;6.770;2023-10-08T05:12:33;16.90;99.90
44900;DHT22;30628;51.188;6.770;2023-10-08T05:15:16;16.90;99.90
44900;DHT22;30628;51.188;6.770;2023-10-08T05:17:46;16.90;99.90
44900;DHT22;30628;51.188;6.770;2023-10-08T05:20:15;16.90;99.90
44900;DHT22;30628;51.188;6.770;2023-10-08T05:22:59;16.90;99.90
44900;DHT22;30628;51.188;6.770;2023-10-08T05:25:43;16.90;99.90
44900;DHT22;30628;51.188;6.770;2023-10-08T05:28:43;16.90;99.90
44900;DHT22;30628;51.188;6.770;2023-10-08T05:31:26;16.80;99.90
44900;DHT22;30628;51.188;6.770;2023-10-08T05:34:03;16.80;99.90
44900;DHT22;30628;51.188;6.770;2023-10-08T05:37:05;16.90;99.90
44900;DHT22;30628;51.188;6.770;2023-10-08T05:39:30;16.90;99.90
44900;DHT22;30628;51.188;6.770;2023-10-08T05:42:16;16.80;99.90
44900;DHT22;30628;51.188;6.770;2023-10-08T05:44:45;16.80;99.90
44900;DHT22;30628;51.188;6.770;2023-10-08T05:47:14;16.70;99.90
44900;DHT22;30628;51.188;6.770;2023-10-08T05:49:59;16.70;99.90
44900;DHT22;30628;51.188;6.770;2023-10-08T05:52:47;16.80;99.90
44900;DHT22;30628;51.188;6.770;2023-10-08T05:55:33;16.80;99.90
44900;DHT22;30628;51.188;6.770;2023-10-08T05:58:02;16.80;99.90
44900;DHT22;30628;51.188;6.770;2023-10-08T06:00:45;16.90;99.90
44900;DHT22;30628;51.188;6.770;2023-10-08T06:03:20;16.90;99.90
44900;DHT22;30628;51.188;6.770;2023-10-08T06:06:01;16.90;99.90
44900;DHT22;30628;51.188;6.770;2023-10-08T06:08:39;16.90;99.90
44900;DHT22;30628;51.188;6.770;2023-10-08T06:11:21;17.00;99.90
44900;DHT22;30628;51.188;6.770;2023-10-08T06:14:02;17.00;99.90
44900;DHT22;30628;51.188;6.770;2023-10-08T06:16:38;16.90;99.90
44900;DHT22;30628;51.188;6.770;2023-10-08T06:19:08;16.90;99.90
44900;DHT22;30628;51.188;6.770;2023-10-08T06:21:41;16.90;99.90
44900;DHT22;30628;51.188;6.770;2023-10-08T06:24:08;17.00;99.90
44900;DHT22;30628;51.188;6.770;2023-10-08T06:26:42;16.90;99.90
44900;DHT22;30628;51.188;6.770;2023-10-08T06:29:11;16.90;99.90
44900;DHT22;30628;51.188;6.770;2023-10-08T06:32:05;16.80;99.90
44900;DHT22;30628;51.188;6.770;2023-10-08T06:34:34;16.80;99.90
44900;DHT22;30628;51.188;6.770;2023-10-08T06:37:00;16.80;99.90
44900;DHT22;30628;51.188;6.770;2023-10-08T06:39:27;16.90;99.90
44900;DHT22;30628;51.188;6.770;2023-10-08T06:41:59;16.80;99.90
44900;DHT22;30628;51.188;6.770;2023-10-08T06:44:25;16.80;99.90
44900;DHT22;30628;51.188;6.770;2023-10-08T06:46:54;16.90;99.90
44900;DHT22;30628;51.188;6.770;2023-10-08T06:49:22;16.80;99.90
44900;DHT22;30628;51.188;6.770;2023-10-08T06:51:51;16.80;99.90
44900;DHT22;30628;51.188;6.770;2023-10-08T06:54:20;16.80;99.90
44900;DHT22;30628;51.188;6.770;2023-10-08T06:56:48;16.90;99.90
44900;DHT22;30628;51.188;6.770;2023-10-08T06:59:22;16.90;99.90
44900;DHT22;30628;51.188;6.770;2023-10-08T07:01:49;17.00;99.90
44900;DHT22;30628;51.188;6.770;2023-10-08T07:04:17;17.10;99.90
44900;DHT22;30628;51.188;6.770;2023-10-08T07:06:44;17.10;99.90
44900;DHT22;30628;51.188;6.770;2023-10-08T07:09:14;17.00;99.90
44900;DHT22;30628;51.188;6.770;2023-10-08T07:11:52;17.00;99.90
44900;DHT22;30628;51.188;6.770;2023-10-08T07:14:22;17.10;99.90
44900;DHT22;30628;51.188;6.770;2023-10-08T07:17:08;17.10;99.90
44900;DHT22;30628;51.188;6.770;2023-10-08T07:19:38;17.10;99.90
44900;DHT22;30628;51.188;6.770;2023-10-08T07:22:08;17.10;99.90
44900;DHT22;30628;51.188;6.770;2023-10-08T07:24:47;17.20;99.90
44900;DHT22;30628;51.188;6.770;2023-10-08T07:27:17;17.10;99.90
44900;DHT22;30628;51.188;6.770;2023-10-08T07:29:47;17.20;99.90
44900;DHT22;30628;51.188;6.770;2023-10-08T07:32:13;17.10;99.90
44900;DHT22;30628;51.188;6.770;2023-10-08T07:34:44;17.30;99.90
44900;DHT22;30628;51.188;6.770;2023-10-08T07:37:10;17.30;99.90
44900;DHT22;30628;51.188;6.770;2023-10-08T07:39:40;17.40;99.90
44900;DHT22;30628;51.188;6.770;2023-10-08T07:42:16;17.40;99.90
44900;DHT22;30628;51.188;6.770;2023-10-08T07:44:42;17.40;99.90
44900;DHT22;30628;51.188;6.770;2023-10-08T07:47:08;17.40;99.90
44900;DHT22;30628;51.188;6.770;2023-10-08T07:49:37;17.40;99.90
44900;DHT22;30628;51.188;6.770;2023-10-08T07:52:03;17.40;99.90
44900;DHT22;30628;51.188;6.770;2023-10-08T07:54:30;17.40;99.90
44900;DHT22;30628;51.188;6.770;2023-10-08T07:57:00;17.30;99.90
44900;DHT22;30628;51.188;6.770;2023-10-08T07:59:40;17.40;99.90
44900;DHT22;30628;51.188;6.770;2023-10-08T08:02:13;17.30;99.90
44900;DHT22;30628;51.188;6.770;2023-10-08T08:04:40;17.40;99.90
44900;DHT22;30628;51.188;6.770;2023-10-08T08:07:08;17.40;99.90
44900;DHT22;30628;51.188;6.770;2023-10-08T08:09:44;17.30;99.90
44900;DHT22;30628;51.188;6.770;2023-10-08T08:12:16;17.40;99.90
44900;DHT22;30628;51.188;6.770;2023-10-08T08:14:42;17.40;99.90
44900;DHT22;30628;51.188;6.770;2023-10-08T08:17:08;17.50;99.90
44900;DHT22;30628;51.188;6.770;2023-10-08T08:19:47;17.60;99.90
44900;DHT22;30628;51.188;6.770;2023-10-08T08:22:14;17.60;99.90
44900;DHT22;30628;51.188;6.770;2023-10-08T08:24:57;17.70;99.90
44900;DHT22;30628;51.188;6.770;2023-10-08T08:27:40;17.60;99.90
44900;DHT22;30628;51.188;6.770;2023-10-08T08:30:13;17.70;99.90
44900;DHT22;30628;51.188;6.770;2023-10-08T08:32:42;17.70;99.90
44900;DHT22;30628;51.188;6.770;2023-10-08T08:35:13;17.70;99.90
44900;DHT22;30628;51.188;6.770;2023-10-08T08:37:42;17.80;99.90
44900;DHT22;30628;51.188;6.770;2023-10-08T08:40:09;17.80;99.90
44900;DHT22;30628;51.188;6.770;2023-10-08T08:42:55;17.90;99.90
44900;DHT22;30628;51.188;6.770;2023-10-08T08:45:24;17.90;99.90
44900;DHT22;30628;51.188;6.770;2023-10-08T08:47:50;17.90;99.90
44900;DHT22;30628;51.188;6.770;2023-10-08T08:50:17;17.90;99.90
44900;DHT22;30628;51.188;6.770;2023-10-08T08:52:45;17.90;99.90
44900;DHT22;30628;51.188;6.770;2023-10-08T08:55:13;18.00;99.90
44900;DHT22;30628;51.188;6.770;2023-10-08T08:57:44;18.00;99.90
44900;DHT22;30628;51.188;6.770;2023-10-08T09:00:14;18.00;99.90
44900;DHT22;30628;51.188;6.770;2023-10-08T09:02:44;18.00;99.90
44900;DHT22;30628;51.188;6.770;2023-10-08T09:05:12;18.00;99.90
44900;DHT22;30628;51.188;6.770;2023-10-08T09:08:05;17.90;99.90
44900;DHT22;30628;51.188;6.770;2023-10-08T09:10:33;18.00;99.90
44900;DHT22;30628;51.188;6.770;2023-10-08T09:13:04;18.10;99.90
44900;DHT22;30628;51.188;6.770;2023-10-08T09:15:30;18.10;99.90
44900;DHT22;30628;51.188;6.770;2023-10-08T09:17:58;18.10;99.90
44900;DHT22;30628;51.188;6.770;2023-10-08T09:20:27;18.20;99.90
44900;DHT22;30628;51.188;6.770;2023-10-08T09:23:07;18.10;99.90
44900;DHT22;30628;51.188;6.770;2023-10-08T09:25:33;18.20;99.90
44900;DHT22;30628;51.188;6.770;2023-10-08T09:27:59;18.20;99.90
44900;DHT22;30628;51.188;6.770;2023-10-08T09:30:25;18.20;99.90
44900;DHT22;30628;51.188;6.770;2023-10-08T09:32:51;18.10;99.90
44900;DHT22;30628;51.188;6.770;2023-10-08T09:35:17;18.20;99.90
44900;DHT22;30628;51.188;6.770;2023-10-08T09:37:44;18.20;99.90
44900;DHT22;30628;51.188;6.770;2023-10-08T09:40:11;18.20;99.90
44900;DHT22;30628;51.188;6.770;2023-10-08T09:42:37;18.30;99.90
44900;DHT22;30628;51.188;6.770;2023-10-08T09:45:04;18.30;99.90
44900;DHT22;30628;51.188;6.770;2023-10-08T09:47:42;18.30;99.90
44900;DHT22;30628;51.188;6.770;2023-10-08T09:50:10;18.30;99.90
44900;DHT22;30628;51.188;6.770;2023-10-08T09:53:10;18.40;99.90
44900;DHT22;30628;51.188;6.770;2023-10-08T09:55:54;18.40;99.90
44900;DHT22;30628;51.188;6.770;2023-10-08T09:58:27;18.50;99.90
44900;DHT22;30628;51.188;6.770;2023-10-08T10:00:55;18.50;99.90
44900;DHT22;30628;51.188;6.770;2023-10-08T10:03:21;18.60;99.90
44900;DHT22;30628;51.188;6.770;2023-10-08T10:05:49;18.60;99.90
44900;DHT22;30628;51.188;6.770;2023-10-08T10:08:16;18.70;99.90
44900;DHT22;30628;51.188;6.770;2023-10-08T10:10:43;18.80;99.90
44900;DHT22;30628;51.188;6.770;2023-10-08T10:13:16;18.80;99.90
44900;DHT22;30628;51.188;6.770;2023-10-08T10:15:43;18.80;99.90
44900;DHT22;30628;51.188;6.770;2023-10-08T10:20:43;18.90;99.90
44900;DHT22;30628;51.188;6.770;2023-10-08T10:25:59;18.90;99.90
44900;DHT22;30628;51.188;6.770;2023-10-08T10:28:26;18.90;99.90
44900;DHT22;30628;51.188;6.770;2023-10-08T10:30:53;18.90;99.90
44900;DHT22;30628;51.188;6.770;2023-10-08T10:33:20;19.00;99.90
44900;DHT22;30628;51.188;6.770;2023-10-08T10:35:51;19.00;99.90
44900;DHT22;30628;51.188;6.770;2023-10-08T10:38:20;19.10;99.90
44900;DHT22;30628;51.188;6.770;2023-10-08T10:40:55;19.10;99.90
44900;DHT22;30628;51.188;6.770;2023-10-08T10:43:26;19.20;99.90
44900;DHT22;30628;51.188;6.770;2023-10-08T10:45:59;19.20;99.90
44900;DHT22;30628;51.188;6.770;2023-10-08T10:48:37;19.20;99.90
44900;DHT22;30628;51.188;6.770;2023-10-08T10:51:05;19.30;99.90
44900;DHT22;30628;51.188;6.770;2023-10-08T10:53:34;19.30;99.90
44900;DHT22;30628;51.188;6.770;2023-10-08T10:56:12;19.40;99.90
44900;DHT22;30628;51.188;6.770;2023-10-08T10:58:46;19.40;99.90
44900;DHT22;30628;51.188;6.770;2023-10-08T11:01:12;19.50;99.90
44900;DHT22;30628;51.188;6.770;2023-10-08T11:03:52;19.50;99.90
44900;DHT22;30628;51.188;6.770;2023-10-08T11:06:21;19.50;99.90
44900;DHT22;30628;51.188;6.770;2023-10-08T11:08:51;19.50;99.90
44900;DHT22;30628;51.188;6.770;2023-10-08T11:11:18;19.60;99.90
44900;DHT22;30628;51.188;6.770;2023-10-08T11:13:44;19.60;99.90
44900;DHT22;30628;51.188;6.770;2023-10-08T11:16:23;19.60;99.90
44900;DHT22;30628;51.188;6.770;2023-10-08T11:18:50;19.60;99.90
44900;DHT22;30628;51.188;6.770;2023-10-08T11:21:16;19.70;99.90
44900;DHT22;30628;51.188;6.770;2023-10-08T11:23:49;19.70;99.90
44900;DHT22;30628;51.188;6.770;2023-10-08T11:26:20;19.70;99.90
44900;DHT22;30628;51.188;6.770;2023-10-08T11:28:47;19.80;99.90
44900;DHT22;30628;51.188;6.770;2023-10-08T11:31:17;19.80;99.90
44900;DHT22;30628;51.188;6.770;2023-10-08T11:33:47;19.90;99.90
44900;DHT22;30628;51.188;6.770;2023-10-08T11:36:22;19.90;99.90
44900;DHT22;30628;51.188;6.770;2023-10-08T11:38:54;19.90;99.90
44900;DHT22;30628;51.188;6.770;2023-10-08T11:41:31;20.00;99.90
44900;DHT22;30628;51.188;6.770;2023-10-08T11:44:00;20.00;99.90
44900;DHT22;30628;51.188;6.770;2023-10-08T11:46:32;20.00;99.90
44900;DHT22;30628;51.188;6.770;2023-10-08T11:49:07;20.00;99.90
44900;DHT22;30628;51.188;6.770;2023-10-08T11:51:43;20.00;99.90
44900;DHT22;30628;51.188;6.770;2023-10-08T11:54:09;20.00;99.90
44900;DHT22;30628;51.188;6.770;2023-10-08T11:56:38;20.00;99.90
44900;DHT22;30628;51.188;6.770;2023-10-08T11:59:04;20.00;99.90
44900;DHT22;30628;51.188;6.770;2023-10-08T12:01:38;20.00;99.90
44900;DHT22;30628;51.188;6.770;2023-10-08T12:04:08;20.00;99.90
44900;DHT22;30628;51.188;6.770;2023-10-08T12:06:42;20.00;99.90
44900;DHT22;30628;51.188;6.770;2023-10-08T12:09:17;20.10;99.90
44900;DHT22;30628;51.188;6.770;2023-10-08T12:11:47;20.10;99.90
44900;DHT22;30628;51.188;6.770;2023-10-08T12:14:13;20.10;99.90
44900;DHT22;30628;51.188;6.770;2023-10-08T12:16:40;20.10;99.90
44900;DHT22;30628;51.188;6.770;2023-10-08T12:19:07;20.10;99.90
44900;DHT22;30628;51.188;6.770;2023-10-08T12:21:42;20.10;99.90
44900;DHT22;30628;51.188;6.770;2023-10-08T12:24:11;20.10;99.90
44900;DHT22;30628;51.188;6.770;2023-10-08T12:26:38;20.10;99.90
44900;DHT22;30628;51.188;6.770;2023-10-08T12:29:14;20.10;99.90
44900;DHT22;30628;51.188;6.770;2023-10-08T12:31:40;20.10;99.90
44900;DHT22;30628;51.188;6.770;2023-10-08T12:34:06;20.10;99.90
44900;DHT22;30628;51.188;6.770;2023-10-08T12:36:37;20.00;99.90
44900;DHT22;30628;51.188;6.770;2023-10-08T12:39:03;20.10;99.90
44900;DHT22;30628;51.188;6.770;2023-10-08T12:41:35;20.00;99.90
44900;DHT22;30628;51.188;6.770;2023-10-08T12:44:04;20.00;99.90
44900;DHT22;30628;51.188;6.770;2023-10-08T12:46:33;19.90;99.90
44900;DHT22;30628;51.188;6.770;2023-10-08T12:49:00;20.00;99.90
44900;DHT22;30628;51.188;6.770;2023-10-08T12:51:35;20.00;99.90
44900;DHT22;30628;51.188;6.770;2023-10-08T12:54:06;19.90;99.90
44900;DHT22;30628;51.188;6.770;2023-10-08T12:56:33;20.00;99.90
44900;DHT22;30628;51.188;6.770;2023-10-08T12:59:10;19.90;99.90
44900;DHT22;30628;51.188;6.770;2023-10-08T13:01:49;19.80;99.90
44900;DHT22;30628;51.188;6.770;2023-10-08T13:04:20;19.90;99.90
44900;DHT22;30628;51.188;6.770;2023-10-08T13:07:11;19.80;99.90
44900;DHT22;30628;51.188;6.770;2023-10-08T13:09:37;19.80;99.90
44900;DHT22;30628;51.188;6.770;2023-10-08T13:12:03;19.70;99.90
44900;DHT22;30628;51.188;6.770;2023-10-08T13:14:30;19.70;99.90
44900;DHT22;30628;51.188;6.770;2023-10-08T13:16:55;19.70;99.90
44900;DHT22;30628;51.188;6.770;2023-10-08T13:19:21;19.80;99.90
44900;DHT22;30628;51.188;6.770;2023-10-08T13:21:51;19.80;99.90
44900;DHT22;30628;51.188;6.770;2023-10-08T13:24:19;19.80;99.90
44900;DHT22;30628;51.188;6.770;2023-10-08T13:26:45;19.90;99.90
44900;DHT22;30628;51.188;6.770;2023-10-08T13:29:13;19.90;99.90
44900;DHT22;30628;51.188;6.770;2023-10-08T13:31:39;20.00;99.90
44900;DHT22;30628;51.188;6.770;2023-10-08T13:34:05;19.90;99.90
44900;DHT22;30628;51.188;6.770;2023-10-08T13:36:35;20.00;99.90
44900;DHT22;30628;51.188;6.770;2023-10-08T13:39:04;20.00;99.90
44900;DHT22;30628;51.188;6.770;2023-10-08T13:41:34;20.10;99.90
44900;DHT22;30628;51.188;6.770;2023-10-08T13:44:00;20.10;99.90
44900;DHT22;30628;51.188;6.770;2023-10-08T13:46:34;20.10;99.90
44900;DHT22;30628;51.188;6.770;2023-10-08T13:49:02;20.10;99.90
44900;DHT22;30628;51.188;6.770;2023-10-08T13:51:27;20.00;99.90
44900;DHT22;30628;51.188;6.770;2023-10-08T13:53:55;20.10;99.90
44900;DHT22;30628;51.188;6.770;2023-10-08T13:56:32;20.10;99.90
44900;DHT22;30628;51.188;6.770;2023-10-08T13:58:59;20.20;99.90
44900;DHT22;30628;51.188;6.770;2023-10-08T14:01:45;20.20;99.90
44900;DHT22;30628;51.188;6.770;2023-10-08T14:04:12;20.20;99.90
44900;DHT22;30628;51.188;6.770;2023-10-08T14:06:42;20.20;99.90
44900;DHT22;30628;51.188;6.770;2023-10-08T14:09:13;20.20;99.90
44900;DHT22;30628;51.188;6.770;2023-10-08T14:11:46;20.10;99.90
44900;DHT22;30628;51.188;6.770;2023-10-08T14:14:12;20.20;99.90
44900;DHT22;30628;51.188;6.770;2023-10-08T14:16:41;20.10;99.90
44900;DHT22;30628;51.188;6.770;2023-10-08T14:19:13;20.10;99.90
44900;DHT22;30628;51.188;6.770;2023-10-08T14:21:40;20.20;99.90
44900;DHT22;30628;51.188;6.770;2023-10-08T14:24:19;20.10;99.90
44900;DHT22;30628;51.188;6.770;2023-10-08T14:26:46;20.20;99.90
44900;DHT22;30628;51.188;6.770;2023-10-08T14:29:18;20.20;99.90
44900;DHT22;30628;51.188;6.770;2023-10-08T14:31:44;20.10;99.90
44900;DHT22;30628;51.188;6.770;2023-10-08T14:34:14;20.10;99.90
44900;DHT22;30628;51.188;6.770;2023-10-08T14:36:49;20.20;99.90
44900;DHT22;30628;51.188;6.770;2023-10-08T14:39:34;20.20;99.90
44900;DHT22;30628;51.188;6.770;2023-10-08T14:42:18;20.20;99.90
44900;DHT22;30628;51.188;6.770;2023-10-08T14:45:03;20.30;99.90
44900;DHT22;30628;51.188;6.770;2023-10-08T14:47:31;20.10;99.90
44900;DHT22;30628;51.188;6.770;2023-10-08T14:49:56;20.10;99.90
44900;DHT22;30628;51.188;6.770;2023-10-08T14:52:22;20.00;99.90
44900;DHT22;30628;51.188;6.770;2023-10-08T14:54:50;20.00;99.90
44900;DHT22;30628;51.188;6.770;2023-10-08T14:57:17;20.00;99.90
44900;DHT22;30628;51.188;6.770;2023-10-08T14:59:44;19.90;99.90
44900;DHT22;30628;51.188;6.770;2023-10-08T15:02:09;19.90;99.90
44900;DHT22;30628;51.188;6.770;2023-10-08T15:04:37;19.80;99.90
44900;DHT22;30628;51.188;6.770;2023-10-08T15:07:05;19.80;99.90
44900;DHT22;30628;51.188;6.770;2023-10-08T15:09:34;19.80;99.90
44900;DHT22;30628;51.188;6.770;2023-10-08T15:12:00;19.80;99.90
44900;DHT22;30628;51.188;6.770;2023-10-08T15:14:25;19.70;99.90
44900;DHT22;30628;51.188;6.770;2023-10-08T15:16:52;19.80;99.90
44900;DHT22;30628;51.188;6.770;2023-10-08T15:19:21;19.80;99.90
44900;DHT22;30628;51.188;6.770;2023-10-08T15:21:48;19.80;99.90
44900;DHT22;30628;51.188;6.770;2023-10-08T15:24:20;19.80;99.90
44900;DHT22;30628;51.188;6.770;2023-10-08T15:26:53;19.80;99.90
44900;DHT22;30628;51.188;6.770;2023-10-08T15:29:20;19.80;99.90
44900;DHT22;30628;51.188;6.770;2023-10-08T15:31:46;19.80;99.90
44900;DHT22;30628;51.188;6.770;2023-10-08T15:34:12;19.80;99.90
44900;DHT22;30628;51.188;6.770;2023-10-08T15:36:39;19.70;99.90
44900;DHT22;30628;51.188;6.770;2023-10-08T15:39:05;19.80;99.90
44900;DHT22;30628;51.188;6.770;2023-10-08T15:41:31;19.80;99.90
44900;DHT22;30628;51.188;6.770;2023-10-08T15:43:57;19.80;99.90
44900;DHT22;30628;51.188;6.770;2023-10-08T15:46:25;19.80;99.90
44900;DHT22;30628;51.188;6.770;2023-10-08T15:48:52;19.80;99.90
44900;DHT22;30628;51.188;6.770;2023-10-08T15:51:18;19.80;99.90
44900;DHT22;30628;51.188;6.770;2023-10-08T15:53:44;19.70;99.90
44900;DHT22;30628;51.188;6.770;2023-10-08T15:56:09;19.80;99.90
44900;DHT22;30628;51.188;6.770;2023-10-08T15:58:35;19.80;99.90
44900;DHT22;30628;51.188;6.770;2023-10-08T16:01:01;19.80;99.90
44900;DHT22;30628;51.188;6.770;2023-10-08T16:03:26;19.80;99.90